Time;durP1;ratioP1;P1;durP2;ratioP2;P2;SDS_P1;SDS_P2;PMS_P1;PMS_P2;Temp;Humidity;BMP_temperature;BMP_pressure;BME280_temperature;BME280_humidity;BME280_pressure;Samples;Min_cycle;Max_cycle;Signal;HPM_P1;HPM_P2
2022/03/31 00:00:41;;;;;;;48.97;26.33;;;;;;;9.83;51.31;96334.59;1695946;84;21523;-80
2022/03/31 00:03:11;;;;;;;54.15;29.10;;;;;;;9.84;52.12;96329.69;1701984;84;21429;-80
2022/03/31 00:05:39;;;;;;;58.70;29.77;;;;;;;9.81;51.63;96336.48;1699106;84;20991;-80
2022/03/31 00:08:13;;;;;;;58.35;30.27;;;;;;;9.84;51.52;96331.01;1690709;84;21005;-80
2022/03/31 00:10:44;;;;;;;54.73;32.08;;;;;;;9.84;52.56;96327.52;1700733;84;21004;-80
2022/03/31 00:13:15;;;;;;;57.15;30.97;;;;;;;9.82;51.56;96325.41;1672051;85;21077;-81
2022/03/31 00:15:42;;;;;;;58.83;30.85;;;;;;;9.77;52.04;96315.09;1657630;86;21107;-81
2022/03/31 00:18:11;;;;;;;53.85;29.40;;;;;;;9.74;53.05;96320.53;1657858;86;21035;-80
2022/03/31 00:20:39;;;;;;;53.15;29.50;;;;;;;9.72;52.10;96315.80;1657758;86;21036;-81
2022/03/31 00:23:06;;;;;;;57.38;29.32;;;;;;;9.69;51.96;96317.28;1657911;86;21031;-81
2022/03/31 00:25:33;;;;;;;54.55;27.65;;;;;;;9.68;51.83;96316.90;1658160;86;21484;-81
2022/03/31 00:28:03;;;;;;;45.73;27.02;;;;;;;9.67;51.81;96315.20;1663069;86;21421;-81
2022/03/31 00:30:30;;;;;;;49.48;26.48;;;;;;;9.61;53.13;96307.97;1663030;86;20993;-80
2022/03/31 00:32:57;;;;;;;51.02;27.58;;;;;;;9.60;53.55;96303.59;1688686;85;21070;-81
2022/03/31 00:35:25;;;;;;;56.77;28.00;;;;;;;9.53;54.39;96292.10;1688589;85;21563;-81
2022/03/31 00:37:52;;;;;;;49.70;26.85;;;;;;;9.50;52.71;96286.05;1691407;84;21067;-81
2022/03/31 00:40:21;;;;;;;48.85;26.52;;;;;;;9.49;52.95;96284.35;1701117;84;21485;-81
2022/03/31 00:42:57;;;;;;;52.45;26.07;;;;;;;9.47;53.03;96285.37;1657995;86;21516;-81
2022/03/31 00:45:34;;;;;;;47.95;25.50;;;;;;;9.47;52.66;96285.37;1630303;88;21036;-81
2022/03/31 00:48:02;;;;;;;48.90;27.07;;;;;;;9.46;52.84;96280.98;1658400;86;21072;-81
2022/03/31 00:50:30;;;;;;;46.20;26.35;;;;;;;9.43;53.56;96271.43;1689025;85;21468;-81
2022/03/31 00:52:57;;;;;;;53.38;28.45;;;;;;;9.41;53.19;96278.60;1689439;85;21528;-81
2022/03/31 00:55:24;;;;;;;50.70;26.60;;;;;;;9.40;53.30;96262.36;1701599;84;21056;-81
2022/03/31 00:57:55;;;;;;;50.55;26.20;;;;;;;9.37;53.53;96256.77;1701582;84;20992;-81
2022/03/31 01:00:19;;;;;;;54.85;27.55;;;;;;;9.34;53.37;96248.16;1696997;84;21045;-81
2022/03/31 01:02:46;;;;;;;55.48;26.12;;;;;;;9.32;53.49;96246.91;1689397;85;21031;-81
2022/03/31 01:05:14;;;;;;;50.15;25.65;;;;;;;9.28;53.96;96236.55;1689151;85;21035;-81
2022/03/31 01:07:41;;;;;;;46.55;25.60;;;;;;;9.24;53.81;96236.73;1689373;85;21459;-81
2022/03/31 01:10:10;;;;;;;46.50;25.35;;;;;;;9.26;53.77;96231.83;1689292;85;21078;-81
2022/03/31 01:12:37;;;;;;;44.88;24.47;;;;;;;9.24;53.73;96230.13;1695985;84;20993;-80
2022/03/31 01:15:09;;;;;;;46.92;24.60;;;;;;;9.23;54.25;96232.36;1701541;84;21032;-80
2022/03/31 01:17:38;;;;;;;38.33;23.07;;;;;;;9.23;54.49;96238.13;1701636;84;21016;-80
2022/03/31 01:20:08;;;;;;;42.90;23.30;;;;;;;9.22;54.15;96236.44;1701585;84;21020;-81
2022/03/31 01:22:35;;;;;;;43.38;24.35;;;;;;;9.19;54.26;96224.23;1701688;84;21409;-80
2022/03/31 01:25:06;;;;;;;51.63;24.95;;;;;;;9.17;54.39;96222.61;1692212;84;21094;-80
2022/03/31 01:27:40;;;;;;;39.05;21.48;;;;;;;9.16;54.29;96222.19;1689020;84;21050;-80
2022/03/31 01:30:09;;;;;;;33.63;19.30;;;;;;;9.13;54.83;96211.31;1709057;83;20980;-80
2022/03/31 01:32:36;;;;;;;42.10;20.70;;;;;;;9.10;54.95;96208.37;1708670;84;21075;-80
2022/03/31 01:35:06;;;;;;;34.43;19.65;;;;;;;9.10;54.57;96204.89;1708863;83;21063;-80
2022/03/31 01:37:33;;;;;;;40.58;21.52;;;;;;;9.07;54.92;96206.36;1661831;86;21066;-80
2022/03/31 01:40:00;;;;;;;38.67;20.88;;;;;;;9.04;54.94;96203.41;1672657;86;21035;-80
2022/03/31 01:42:30;;;;;;;46.20;23.90;;;;;;;9.03;55.26;96212.28;1671938;86;21492;-80
2022/03/31 01:44:58;;;;;;;38.60;21.10;;;;;;;8.99;55.06;96219.98;1689315;84;21038;-80
2022/03/31 01:47:24;;;;;;;39.33;22.42;;;;;;;8.95;55.81;96218.42;1700043;84;21539;-81
2022/03/31 01:49:51;;;;;;;48.92;24.47;;;;;;;8.92;55.62;96215.47;1700213;84;21086;-81
2022/03/31 01:52:18;;;;;;;50.50;24.72;;;;;;;8.88;56.18;96206.48;1698261;84;21062;-81
2022/03/31 01:54:45;;;;;;;44.38;24.02;;;;;;;8.82;58.00;96212.92;1696597;84;22433;-81
2022/03/31 01:57:12;;;;;;;42.53;22.87;;;;;;;8.74;56.69;96215.95;1698031;84;21039;-81
2022/03/31 01:59:43;;;;;;;39.80;23.85;;;;;;;8.67;57.83;96222.47;1697955;84;21058;-81
2022/03/31 02:02:12;;;;;;;40.43;22.15;;;;;;;8.61;58.16;96226.30;1698073;84;21517;-80
2022/03/31 02:04:41;;;;;;;39.63;20.52;;;;;;;8.56;56.85;96229.15;1698080;84;21019;-81
2022/03/31 02:07:11;;;;;;;41.55;20.97;;;;;;;8.51;56.41;96223.20;1697489;83;21078;-81
2022/03/31 02:09:38;;;;;;;42.08;23.00;;;;;;;8.49;57.50;96218.94;1698352;84;21086;-81
2022/03/31 02:12:06;;;;;;;42.48;23.15;;;;;;;8.45;57.26;96215.16;1669941;84;21444;-80
2022/03/31 02:14:37;;;;;;;38.70;23.20;;;;;;;8.41;58.47;96217.55;1697489;84;21011;-80
2022/03/31 02:17:06;;;;;;;44.10;23.20;;;;;;;8.37;57.12;96214.67;1697796;84;21102;-80
2022/03/31 02:19:34;;;;;;;42.15;23.85;;;;;;;8.37;57.69;96204.56;1697839;84;21396;-80
2022/03/31 02:22:01;;;;;;;45.20;23.95;;;;;;;8.32;58.53;96207.45;1697832;84;21397;-80
2022/03/31 02:24:28;;;;;;;45.33;24.82;;;;;;;8.30;57.54;96214.56;1698326;84;21058;-80
2022/03/31 02:26:54;;;;;;;40.03;22.87;;;;;;;8.27;57.66;96213.41;1698139;84;21054;-80
2022/03/31 02:29:21;;;;;;;48.68;21.73;;;;;;;8.26;57.23;96209.08;1693176;84;21043;-80
2022/03/31 02:31:48;;;;;;;37.45;21.33;;;;;;;8.25;57.08;96206.89;1684227;84;21600;-80
2022/03/31 02:34:15;;;;;;;41.35;21.62;;;;;;;8.24;56.83;96214.42;1698310;84;20992;-81
2022/03/31 02:36:43;;;;;;;38.33;21.23;;;;;;;8.22;58.11;96209.66;1698327;84;21098;-81
2022/03/31 02:39:11;;;;;;;46.15;22.73;;;;;;;8.20;57.35;96214.17;1698319;84;21010;-81
2022/03/31 02:41:38;;;;;;;39.85;20.23;;;;;;;8.20;57.65;96202.30;1698084;84;21007;-82
2022/03/31 02:44:07;;;;;;;41.53;21.62;;;;;;;8.19;57.33;96209.84;1698402;84;21031;-81
2022/03/31 02:46:34;;;;;;;35.33;20.57;;;;;;;8.17;57.52;96196.70;1697800;84;21134;-82
2022/03/31 02:49:02;;;;;;;40.17;20.17;;;;;;;8.19;57.42;96196.16;1697580;84;21073;-81
2022/03/31 02:51:28;;;;;;;42.05;20.92;;;;;;;8.18;57.35;96185.70;1697447;84;21003;-81
2022/03/31 02:56:39;;;;;;;;;;;;;;;8.16;57.46;96191.05;1691327;85;21018;-81
2022/03/31 02:59:09;;;;;;;42.30;21.52;;;;;;;8.15;57.35;96189.31;1688798;85;20140;-81
2022/03/31 03:01:36;;;;;;;36.90;21.05;;;;;;;8.13;57.58;96186.36;1688542;85;21080;-81
2022/03/31 03:04:03;;;;;;;37.85;20.82;;;;;;;8.11;57.70;96177.69;1688991;85;21051;-81
2022/03/31 03:06:30;;;;;;;39.63;20.08;;;;;;;8.11;58.22;96186.47;1689072;85;21024;-81
2022/03/31 03:08:57;;;;;;;38.42;21.40;;;;;;;8.11;57.56;96183.83;1689231;85;21393;-81
2022/03/31 03:11:24;;;;;;;42.27;22.70;;;;;;;8.14;57.73;96178.86;1689034;85;21449;-81
2022/03/31 03:13:50;;;;;;;40.50;21.85;;;;;;;8.13;57.78;96177.99;1689252;85;20956;-81
2022/03/31 03:16:17;;;;;;;43.52;23.12;;;;;;;8.10;60.77;96178.13;1689259;85;21000;-81
2022/03/31 03:18:44;;;;;;;37.00;21.27;;;;;;;8.09;59.89;96188.30;1688941;85;21071;-81
2022/03/31 03:21:11;;;;;;;34.92;20.52;;;;;;;8.04;60.52;96184.59;1689284;85;21389;-81
2022/03/31 03:23:39;;;;;;;45.48;21.10;;;;;;;8.01;59.42;96184.72;1689386;85;21055;-81
2022/03/31 03:26:07;;;;;;;33.65;20.02;;;;;;;8.00;59.49;96176.88;1689163;85;21071;-81
2022/03/31 03:28:36;;;;;;;38.42;20.52;;;;;;;8.00;58.53;96172.92;1688473;85;21027;-81
2022/03/31 03:31:06;;;;;;;36.45;19.07;;;;;;;8.02;58.48;96181.15;1688959;85;21615;-81
2022/03/31 03:33:33;;;;;;;41.35;19.95;;;;;;;8.03;58.28;96177.61;1689059;85;21507;-81
2022/03/31 03:36:03;;;;;;;38.38;20.60;;;;;;;8.04;58.25;96170.53;1689100;85;21417;-81
2022/03/31 03:38:31;;;;;;;36.25;19.95;;;;;;;8.03;58.85;96173.66;1689054;85;21062;-80
2022/03/31 03:40:57;;;;;;;45.58;22.13;;;;;;;8.02;59.51;96162.68;1688989;85;21018;-81
2022/03/31 03:43:23;;;;;;;37.93;21.87;;;;;;;8.02;58.72;96161.84;1688873;84;21071;-81
2022/03/31 03:45:50;;;;;;;38.88;20.97;;;;;;;8.03;58.78;96151.23;1688858;85;20980;-81
2022/03/31 03:48:17;;;;;;;43.48;20.80;;;;;;;8.02;58.49;96154.77;1689041;85;20964;-81
2022/03/31 03:50:43;;;;;;;46.15;22.75;;;;;;;8.03;58.32;96158.27;1688890;85;21603;-81
2022/03/31 03:53:10;;;;;;;40.88;21.57;;;;;;;8.06;58.20;96160.77;1688749;83;21031;-81
2022/03/31 03:55:38;;;;;;;39.30;21.15;;;;;;;8.05;59.08;96164.31;1689022;85;21026;-80
2022/03/31 03:58:05;;;;;;;40.23;21.52;;;;;;;8.04;58.82;96153.38;1689004;85;20999;-81
2022/03/31 04:00:32;;;;;;;39.67;22.02;;;;;;;8.03;59.61;96153.86;1688713;84;21092;-81
2022/03/31 04:02:59;;;;;;;40.20;21.87;;;;;;;8.03;59.77;96160.45;1688678;85;21047;-81
2022/03/31 04:05:25;;;;;;;36.80;21.97;;;;;;;8.02;59.86;96167.13;1688651;85;21122;-81
2022/03/31 04:07:52;;;;;;;41.33;22.40;;;;;;;8.00;60.49;96158.41;1688874;85;21456;-81
2022/03/31 04:10:18;;;;;;;43.55;22.27;;;;;;;7.99;59.41;96165.49;1688804;85;21070;-81
2022/03/31 04:12:45;;;;;;;42.45;21.45;;;;;;;8.01;59.04;96155.70;1688981;85;21125;-81
2022/03/31 04:15:15;;;;;;;38.83;21.10;;;;;;;8.02;58.87;96148.66;1688848;85;21031;-81
2022/03/31 04:17:43;;;;;;;38.00;21.40;;;;;;;8.00;60.64;96159.73;1689037;85;21500;-80
2022/03/31 04:20:13;;;;;;;38.42;21.40;;;;;;;7.98;59.62;96168.20;1688802;85;22094;-80
2022/03/31 04:22:40;;;;;;;43.68;21.30;;;;;;;7.97;60.77;96164.69;1688874;85;21015;-80
2022/03/31 04:25:09;;;;;;;38.73;21.05;;;;;;;7.96;59.62;96162.99;1688879;85;21070;-80
2022/03/31 04:27:38;;;;;;;39.38;20.12;;;;;;;7.99;59.23;96150.98;1688785;85;21007;-80
2022/03/31 04:30:09;;;;;;;45.15;21.55;;;;;;;7.99;60.50;96141.75;1688026;85;21013;-80
2022/03/31 04:32:37;;;;;;;39.13;20.50;;;;;;;7.99;59.90;96144.38;1688961;85;21043;-80
2022/03/31 04:35:05;;;;;;;36.83;19.87;;;;;;;7.95;60.32;96134.05;1688820;85;20995;-80
2022/03/31 04:37:33;;;;;;;36.40;20.25;;;;;;;7.92;59.53;96140.33;1689016;85;21436;-81
2022/03/31 04:40:00;;;;;;;39.20;20.88;;;;;;;7.92;60.54;96154.38;1688841;85;21051;-81
2022/03/31 04:42:27;;;;;;;35.78;20.30;;;;;;;7.92;60.35;96166.25;1683879;85;21056;-81
2022/03/31 04:44:53;;;;;;;32.45;18.70;;;;;;;7.93;59.64;96165.77;1674280;86;21079;-81
2022/03/31 04:47:20;;;;;;;40.88;20.15;;;;;;;7.97;59.92;96166.02;1674252;85;21037;-82
2022/03/31 04:49:46;;;;;;;34.10;20.00;;;;;;;7.98;61.05;96171.70;1674329;86;20993;-81
2022/03/31 04:52:13;;;;;;;41.85;20.40;;;;;;;8.00;61.03;96171.60;1677523;83;21087;-82
2022/03/31 04:54:43;;;;;;;35.45;20.65;;;;;;;8.02;59.83;96169.77;1697909;84;21027;-81
2022/03/31 04:57:08;;;;;;;35.83;19.95;;;;;;;8.06;59.72;96168.20;1697234;84;21062;-81
2022/03/31 04:59:34;;;;;;;34.18;19.62;;;;;;;8.12;60.44;96161.78;1697635;84;21014;-82
2022/03/31 05:02:01;;;;;;;40.15;19.52;;;;;;;8.11;61.79;96163.17;1697464;84;21445;-81
2022/03/31 05:04:28;;;;;;;37.80;20.12;;;;;;;8.16;60.14;96153.23;1697687;84;21169;-81
2022/03/31 05:06:55;;;;;;;34.40;19.98;;;;;;;8.19;60.99;96151.30;1692351;84;21016;-82
2022/03/31 05:09:21;;;;;;;36.63;19.87;;;;;;;8.24;59.60;96155.50;1680178;85;22056;-81
2022/03/31 05:11:48;;;;;;;43.65;20.20;;;;;;;8.29;59.38;96148.20;1692233;85;21103;-80
2022/03/31 05:14:15;;;;;;;35.52;19.80;;;;;;;8.34;59.70;96144.03;1693205;84;21013;-80
2022/03/31 05:16:41;;;;;;;51.70;21.70;;;;;;;8.38;59.54;96143.78;1697408;84;21026;-80
2022/03/31 05:19:08;;;;;;;41.13;21.17;;;;;;;8.43;59.42;96136.96;1697294;84;21027;-80
2022/03/31 05:21:34;;;;;;;41.40;20.62;;;;;;;8.48;59.20;96141.54;1697536;84;21007;-81
2022/03/31 05:24:01;;;;;;;34.05;20.20;;;;;;;8.53;59.55;96141.32;1696983;84;22142;-81
2022/03/31 05:26:28;;;;;;;35.68;21.05;;;;;;;8.51;61.11;96152.41;1697490;84;21089;-81
2022/03/31 05:28:54;;;;;;;44.30;21.05;;;;;;;8.51;59.58;96153.24;1696022;84;21030;-80
2022/03/31 05:31:21;;;;;;;38.48;20.15;;;;;;;8.56;59.39;96142.02;1690412;85;21061;-80
2022/03/31 05:33:47;;;;;;;42.95;21.25;;;;;;;8.61;59.28;96140.47;1684685;85;21064;-80
2022/03/31 05:36:14;;;;;;;41.95;21.30;;;;;;;8.61;59.28;96140.92;1679846;85;21445;-80
2022/03/31 05:38:40;;;;;;;40.58;21.05;;;;;;;8.66;59.03;96133.16;1683648;84;20987;-80
2022/03/31 05:41:06;;;;;;;39.20;20.90;;;;;;;8.69;59.43;96134.79;1697578;84;21015;-81
2022/03/31 05:43:33;;;;;;;38.70;19.87;;;;;;;8.69;59.66;96146.19;1697530;84;21464;-80
2022/03/31 05:45:59;;;;;;;40.20;20.55;;;;;;;8.69;59.42;96154.11;1697416;84;21062;-81
2022/03/31 05:48:26;;;;;;;43.55;20.27;;;;;;;8.70;59.18;96155.84;1697587;84;20982;-81
2022/03/31 05:50:52;;;;;;;39.65;19.95;;;;;;;8.78;58.68;96153.25;1696049;84;21360;-80
2022/03/31 05:53:19;;;;;;;42.90;20.72;;;;;;;8.83;58.65;96156.05;1691214;84;21060;-80
2022/03/31 05:55:46;;;;;;;48.45;21.93;;;;;;;8.89;58.58;96160.63;1690751;85;21052;-80
2022/03/31 05:58:12;;;;;;;41.13;21.10;;;;;;;8.91;58.77;96162.25;1692512;85;21293;-80
2022/03/31 06:00:40;;;;;;;36.05;20.37;;;;;;;8.95;58.33;96157.66;1694805;84;21018;-81
2022/03/31 06:03:07;;;;;;;43.25;20.60;;;;;;;8.97;58.23;96157.96;1688546;85;20984;-80
2022/03/31 06:05:33;;;;;;;44.03;20.08;;;;;;;9.05;58.17;96154.08;1692898;85;21047;-81
2022/03/31 06:08:00;;;;;;;36.10;18.80;;;;;;;9.12;58.38;96162.05;1693390;84;21410;-80
2022/03/31 06:10:26;;;;;;;35.63;17.82;;;;;;;9.15;57.62;96173.79;1692804;85;21114;-81
2022/03/31 06:12:53;;;;;;;35.55;18.55;;;;;;;9.14;57.34;96173.86;1692549;85;21031;-81
2022/03/31 06:15:20;;;;;;;36.42;18.77;;;;;;;9.15;57.23;96171.14;1693136;84;21397;-81
2022/03/31 06:17:46;;;;;;;33.10;18.45;;;;;;;9.15;57.38;96175.56;1693567;84;21001;-82
2022/03/31 06:20:13;;;;;;;37.93;18.80;;;;;;;9.13;57.44;96180.09;1692576;84;21059;-81
2022/03/31 06:22:40;;;;;;;40.08;19.48;;;;;;;9.11;57.35;96179.68;1672673;85;21012;-82
2022/03/31 06:25:10;;;;;;;38.95;19.82;;;;;;;9.16;57.14;96168.02;1685943;85;21386;-82
2022/03/31 06:27:37;;;;;;;40.73;19.95;;;;;;;9.19;57.03;96169.19;1688599;85;21020;-82
2022/03/31 06:30:05;;;;;;;37.78;18.07;;;;;;;9.20;56.92;96160.31;1672102;85;21086;-81
2022/03/31 06:32:32;;;;;;;40.80;19.48;;;;;;;9.21;56.86;96174.77;1680321;85;21016;-81
2022/03/31 06:35:00;;;;;;;47.13;20.95;;;;;;;9.22;56.79;96172.99;1690005;85;20992;-81
2022/03/31 06:37:27;;;;;;;44.80;22.82;;;;;;;9.26;56.94;96177.16;1693275;84;21052;-81
2022/03/31 06:39:54;;;;;;;41.37;22.95;;;;;;;9.32;57.13;96160.98;1693197;85;21008;-81
2022/03/31 06:42:20;;;;;;;42.40;20.88;;;;;;;9.38;56.91;96156.67;1689977;85;21012;-81
2022/03/31 06:44:47;;;;;;;42.62;19.70;;;;;;;9.46;56.57;96165.52;1693357;85;20997;-81
2022/03/31 06:47:13;;;;;;;50.10;21.42;;;;;;;9.54;56.41;96156.33;1693119;84;21039;-81
2022/03/31 06:49:40;;;;;;;34.98;20.32;;;;;;;9.60;56.39;96152.84;1689421;85;20996;-81
2022/03/31 06:52:06;;;;;;;41.60;20.45;;;;;;;9.69;56.47;96148.85;1692196;85;21430;-81
2022/03/31 06:54:33;;;;;;;43.83;21.45;;;;;;;9.71;56.50;96151.42;1686371;85;21410;-81
2022/03/31 06:56:59;;;;;;;42.60;20.65;;;;;;;9.74;56.90;96148.12;1691717;85;21012;-81
2022/03/31 06:59:29;;;;;;;39.73;21.00;;;;;;;9.82;56.40;96153.44;1691649;83;20948;-80
2022/03/31 07:01:54;;;;;;;46.18;22.27;;;;;;;9.90;56.17;96148.12;1691355;85;20981;-81
2022/03/31 07:04:20;;;;;;;50.10;23.95;;;;;;;10.03;56.07;96144.75;1685877;85;21004;-80
2022/03/31 07:06:48;;;;;;;47.93;23.42;;;;;;;10.14;55.88;96138.85;1688680;85;21433;-81
2022/03/31 07:09:15;;;;;;;47.53;23.52;;;;;;;10.24;55.58;96143.13;1690840;85;21009;-80
2022/03/31 07:11:42;;;;;;;42.50;21.48;;;;;;;10.33;55.32;96137.79;1688449;85;21051;-80
2022/03/31 07:14:09;;;;;;;52.40;23.07;;;;;;;10.37;55.33;96144.13;1687028;85;21071;-80
2022/03/31 07:16:36;;;;;;;49.93;23.67;;;;;;;10.47;55.24;96139.65;1687205;85;21421;-80
2022/03/31 07:19:03;;;;;;;45.63;23.52;;;;;;;10.52;55.06;96131.82;1691839;85;21020;-80
2022/03/31 07:21:30;;;;;;;49.95;23.92;;;;;;;10.61;55.18;96134.38;1691914;85;20992;-78
2022/03/31 07:23:56;;;;;;;43.40;23.25;;;;;;;10.66;54.41;96128.34;1687561;85;21418;-79
2022/03/31 07:26:23;;;;;;;50.03;24.00;;;;;;;10.73;54.62;96130.61;1691971;85;21049;-79
2022/03/31 07:28:49;;;;;;;50.60;24.27;;;;;;;10.85;54.61;96127.69;1688133;85;20965;-79
2022/03/31 07:31:16;;;;;;;51.00;21.33;;;;;;;10.95;54.25;96132.34;1691832;85;21354;-79
2022/03/31 07:33:42;;;;;;;48.42;21.23;;;;;;;11.04;53.24;96134.89;1687711;85;21039;-79
2022/03/31 07:36:10;;;;;;;53.60;22.27;;;;;;;11.14;53.05;96135.66;1684504;85;20984;-79
2022/03/31 07:38:36;;;;;;;50.38;22.42;;;;;;;11.25;52.58;96135.83;1688189;85;21012;-79
2022/03/31 07:41:03;;;;;;;51.60;23.32;;;;;;;11.36;52.40;96143.13;1692345;85;21047;-78
2022/03/31 07:43:30;;;;;;;48.42;22.30;;;;;;;11.44;52.17;96132.89;1692205;84;20965;-78
2022/03/31 07:45:57;;;;;;;50.90;24.63;;;;;;;11.53;51.54;96140.73;1650674;87;21072;-78
2022/03/31 07:48:23;;;;;;;53.75;23.65;;;;;;;11.55;50.57;96140.64;1671383;85;21327;-80
2022/03/31 07:50:50;;;;;;;57.67;23.90;;;;;;;11.57;51.18;96140.05;1650777;87;21036;-83
2022/03/31 07:53:17;;;;;;;55.52;23.67;;;;;;;11.65;50.63;96135.13;1655947;85;21028;-80
2022/03/31 07:55:44;;;;;;;44.08;22.45;;;;;;;11.73;51.10;96131.52;1706758;84;21032;-82
2022/03/31 07:58:10;;;;;;;48.35;22.22;;;;;;;11.84;50.89;96124.66;1706327;84;21022;-83
2022/03/31 08:00:37;;;;;;;44.00;21.48;;;;;;;11.94;49.92;96129.73;1704654;84;21033;-78
2022/03/31 08:03:04;;;;;;;49.63;22.93;;;;;;;12.03;49.63;96127.44;1648814;87;21043;-82
2022/03/31 08:05:33;;;;;;;44.85;22.55;;;;;;;12.11;49.30;96116.71;1696125;84;20977;-86
2022/03/31 08:07:59;;;;;;;41.63;22.40;;;;;;;12.23;49.53;96124.34;1691853;84;21023;-84
2022/03/31 08:10:25;;;;;;;44.70;22.27;;;;;;;12.35;49.28;96119.16;1664777;85;21162;-86
2022/03/31 08:12:52;;;;;;;42.55;21.93;;;;;;;12.47;49.25;96118.34;1680788;84;20972;-87
2022/03/31 08:15:19;;;;;;;41.65;21.40;;;;;;;12.56;49.48;96115.53;1670695;86;21385;-84
2022/03/31 08:17:47;;;;;;;48.23;23.55;;;;;;;12.66;49.88;96112.62;1681251;84;21447;-86
2022/03/31 08:20:15;;;;;;;41.70;21.37;;;;;;;12.77;49.77;96107.91;1674847;85;21027;-85
2022/03/31 08:22:41;;;;;;;45.50;22.48;;;;;;;12.93;48.95;96103.71;1673950;85;21097;-84
2022/03/31 08:25:10;;;;;;;40.30;21.75;;;;;;;13.05;49.38;96101.97;1674621;85;21161;-84
2022/03/31 08:27:38;;;;;;;39.75;21.60;;;;;;;13.22;49.25;96102.61;1676249;85;21490;-84
2022/03/31 08:30:13;;;;;;;41.35;23.02;;;;;;;13.33;49.09;96097.86;1676424;85;21033;-84
2022/03/31 08:32:43;;;;;;;46.28;22.00;;;;;;;13.48;48.73;96105.70;1676688;85;21041;-85
2022/03/31 08:35:10;;;;;;;39.42;22.42;;;;;;;13.63;49.08;96107.29;1676675;85;21038;-85
2022/03/31 08:37:38;;;;;;;42.62;20.92;;;;;;;13.68;47.28;96102.48;1677115;85;21027;-85
2022/03/31 08:40:08;;;;;;;42.85;21.12;;;;;;;13.76;48.12;96099.26;1677574;85;21007;-85
2022/03/31 08:42:35;;;;;;;40.63;21.17;;;;;;;13.91;47.22;96097.77;1677779;85;21022;-85
2022/03/31 08:45:04;;;;;;;40.55;22.67;;;;;;;13.97;47.88;96091.98;1677767;85;21036;-85
2022/03/31 08:47:32;;;;;;;41.65;21.90;;;;;;;14.02;46.96;96077.83;1677473;85;21097;-84
2022/03/31 08:49:58;;;;;;;41.80;21.60;;;;;;;14.05;47.07;96080.75;1677739;85;21473;-85
2022/03/31 08:52:25;;;;;;;40.45;21.15;;;;;;;14.03;46.88;96076.03;1677800;85;21025;-85
2022/03/31 08:54:51;;;;;;;39.63;21.55;;;;;;;13.99;45.88;96078.05;1666599;84;21044;-85
2022/03/31 08:57:19;;;;;;;46.55;20.60;;;;;;;14.00;46.69;96082.44;1661126;86;21047;-85
2022/03/31 08:59:47;;;;;;;40.08;21.20;;;;;;;14.01;46.61;96085.46;1630300;87;21009;-85
2022/03/31 09:02:27;;;;;;;36.98;21.23;;;;;;;14.03;46.16;96086.69;1670121;86;21073;-85
2022/03/31 09:05:10;;;;;;;44.03;22.25;;;;;;;14.03;46.34;96089.34;1661267;86;21046;-84
2022/03/31 09:08:00;;;;;;;41.90;22.35;;;;;;;14.02;46.51;96091.16;1669984;86;21041;-85
2022/03/31 09:10:32;;;;;;;37.85;21.73;;;;;;;14.06;46.83;96086.44;1660065;86;21083;-85
2022/03/31 09:13:03;;;;;;;45.52;23.57;;;;;;;14.10;46.97;96086.58;1658153;86;21039;-85
2022/03/31 09:15:31;;;;;;;45.15;23.98;;;;;;;14.12;47.01;96080.67;1658001;86;21087;-83
2022/03/31 09:18:00;;;;;;;38.63;21.55;;;;;;;14.16;47.29;96079.45;1664087;86;21069;-83
2022/03/31 09:20:39;;;;;;;37.10;21.60;;;;;;;14.15;47.16;96075.09;1670144;86;21034;-83
2022/03/31 09:23:07;;;;;;;40.40;20.77;;;;;;;14.17;47.78;96076.32;1670015;86;21062;-85
2022/03/31 09:25:34;;;;;;;41.85;21.35;;;;;;;14.23;48.15;96075.37;1670092;86;21504;-84
2022/03/31 09:28:18;;;;;;;34.88;20.62;;;;;;;14.33;47.79;96078.69;1664116;85;21022;-85
2022/03/31 09:30:53;;;;;;;;;;;;;;;14.37;47.20;96086.81;1660256;86;21083;-85
2022/03/31 09:33:36;;;;;;;35.45;19.32;;;;;;;14.39;47.33;96081.73;1658306;86;20127;-85
2022/03/31 09:36:18;;;;;;;39.58;18.77;;;;;;;14.40;48.15;96077.23;1657927;86;21039;-84
2022/03/31 09:39:01;;;;;;;27.95;16.00;;;;;;;14.43;47.44;96064.16;1658086;86;21027;-85
2022/03/31 09:41:34;;;;;;;26.80;13.32;;;;;;;14.45;45.28;96059.08;1605534;89;21119;-85
2022/03/31 09:44:05;;;;;;;30.80;15.00;;;;;;;14.43;45.23;96051.70;1615280;89;21495;-85
2022/03/31 09:46:36;;;;;;;28.00;14.05;;;;;;;14.51;45.58;96051.11;1634622;88;21100;-85
2022/03/31 09:49:19;;;;;;;28.07;13.83;;;;;;;14.61;44.53;96049.42;1634700;88;21052;-85
2022/03/31 09:51:54;;;;;;;28.55;13.72;;;;;;;14.74;44.71;96052.48;1644799;85;21500;-85
2022/03/31 09:54:26;;;;;;;28.05;12.75;;;;;;;14.88;43.60;96048.77;1665781;85;21084;-84
2022/03/31 09:56:56;;;;;;;28.95;13.58;;;;;;;15.04;43.33;96040.41;1680900;85;21067;-84
2022/03/31 09:59:30;;;;;;;24.77;12.55;;;;;;;15.33;43.44;96033.23;1680809;85;21012;-85
2022/03/31 10:01:57;;;;;;;27.67;13.45;;;;;;;15.58;41.28;96032.57;1669940;85;21000;-84
2022/03/31 10:04:25;;;;;;;24.75;12.47;;;;;;;15.78;42.48;96016.23;1680650;85;21004;-84
2022/03/31 10:06:52;;;;;;;23.20;12.95;;;;;;;16.01;41.85;96013.98;1680960;85;21099;-83
2022/03/31 10:09:20;;;;;;;26.20;13.50;;;;;;;16.17;40.58;96005.05;1680610;85;21036;-83
2022/03/31 10:12:16;;;;;;;27.90;13.62;;;;;;;16.31;41.22;96015.05;1665321;86;21036;-84
2022/03/31 10:14:59;;;;;;;24.05;12.95;;;;;;;16.40;40.61;96005.41;1664165;86;21110;-84
2022/03/31 10:17:28;;;;;;;28.52;14.43;;;;;;;16.46;40.53;96004.88;1652601;86;21037;-84
2022/03/31 10:20:01;;;;;;;25.72;14.20;;;;;;;16.52;40.29;96007.02;1695754;84;21035;-84
2022/03/31 10:25:15;;;;;;;32.78;13.88;;;;;;;16.58;38.54;96003.84;1698098;84;21002;-84
2022/03/31 10:27:49;;;;;;;25.72;13.05;;;;;;;16.64;38.72;96002.45;1698151;84;20992;-84
2022/03/31 10:30:20;;;;;;;27.50;13.80;;;;;;;16.56;38.01;95996.93;1665623;86;21005;-84
2022/03/31 10:33:01;;;;;;;26.20;11.73;;;;;;;16.50;38.76;95996.95;1665378;86;20992;-84
2022/03/31 10:35:33;;;;;;;24.40;12.75;;;;;;;16.46;39.24;95996.38;1665727;86;21028;-84
2022/03/31 10:38:16;;;;;;;28.55;17.42;;;;;;;16.49;38.82;95996.09;1665661;86;20996;-84
2022/03/31 10:40:49;;;;;;;29.92;12.13;;;;;;;16.49;38.74;95984.58;1676602;84;21069;-84
2022/03/31 10:43:26;;;;;;;26.45;11.90;;;;;;;16.54;38.73;95978.34;1698345;84;21003;-84
2022/03/31 10:45:54;;;;;;;27.75;12.53;;;;;;;16.62;38.44;95969.66;1697511;84;21055;-84
2022/03/31 10:48:26;;;;;;;25.92;10.48;;;;;;;16.70;38.14;95973.82;1698244;84;21047;-84
2022/03/31 10:51:14;;;;;;;25.52;10.82;;;;;;;16.73;37.58;95964.72;1670244;84;22180;-84
2022/03/31 10:53:50;;;;;;;24.82;10.68;;;;;;;16.78;38.15;95961.63;1698044;84;20967;-84
2022/03/31 10:56:26;;;;;;;28.47;11.65;;;;;;;16.92;37.94;95941.67;1698229;84;20996;-84
2022/03/31 10:58:57;;;;;;;30.92;12.90;;;;;;;16.99;37.77;95931.63;1698288;84;21022;-84
2022/03/31 11:01:28;;;;;;;27.75;12.95;;;;;;;16.99;37.64;95922.77;1698116;84;20999;-84
2022/03/31 11:04:08;;;;;;;27.27;13.50;;;;;;;17.03;37.73;95909.47;1698142;84;21067;-84
2022/03/31 11:06:51;;;;;;;31.52;13.35;;;;;;;17.09;37.69;95894.70;1672282;85;21044;-84
2022/03/31 11:09:32;;;;;;;25.35;12.95;;;;;;;17.10;37.97;95900.41;1673164;86;21376;-84
2022/03/31 11:11:59;;;;;;;25.08;12.78;;;;;;;17.35;37.84;95896.36;1673392;86;21489;-84
2022/03/31 11:14:27;;;;;;;27.75;13.53;;;;;;;17.63;37.24;95895.18;1672127;86;21035;-84
2022/03/31 11:16:54;;;;;;;30.65;14.10;;;;;;;17.65;38.06;95894.53;1698170;84;21123;-83
2022/03/31 11:19:20;;;;;;;31.05;13.22;;;;;;;17.67;38.22;95885.87;1698193;84;21393;-83
2022/03/31 11:21:48;;;;;;;26.27;12.53;;;;;;;17.90;38.37;95887.41;1698019;84;21050;-84
2022/03/31 11:24:17;;;;;;;24.57;11.70;;;;;;;18.02;37.85;95884.07;1698102;84;21098;-83
2022/03/31 11:26:46;;;;;;;24.47;10.08;;;;;;;17.98;37.31;95871.95;1697258;84;21075;-83
2022/03/31 11:29:18;;;;;;;24.67;11.15;;;;;;;17.92;37.09;95876.03;1698065;84;21337;-83
2022/03/31 11:31:52;;;;;;;20.55;11.22;;;;;;;17.89;37.14;95873.66;1698125;84;21063;-84
2022/03/31 11:34:22;;;;;;;22.85;13.38;;;;;;;17.85;37.00;95873.59;1698182;84;21483;-84